sensor_id;sensor_type;location;lat;lon;timestamp;temperature;humidity
48604;DHT22;32708;51.212;6.788;2022-12-18T00:01:31;-2.10;99.90
48604;DHT22;32708;51.212;6.788;2022-12-18T00:04:01;-2.20;99.90
48604;DHT22;32708;51.212;6.788;2022-12-18T00:06:31;-2.10;99.90
48604;DHT22;32708;51.212;6.788;2022-12-18T00:09:03;-2.10;99.90
48604;DHT22;32708;51.212;6.788;2022-12-18T00:11:30;-2.10;99.90
48604;DHT22;32708;51.212;6.788;2022-12-18T00:14:01;-2.10;99.90
48604;DHT22;32708;51.212;6.788;2022-12-18T00:16:29;-2.10;99.90
48604;DHT22;32708;51.212;6.788;2022-12-18T00:19:00;-2.10;99.90
48604;DHT22;32708;51.212;6.788;2022-12-18T00:21:29;-2.10;99.90
48604;DHT22;32708;51.212;6.788;2022-12-18T00:23:58;-2.10;99.90
48604;DHT22;32708;51.212;6.788;2022-12-18T00:26:31;-2.10;99.90
48604;DHT22;32708;51.212;6.788;2022-12-18T00:29:12;-2.00;99.90
48604;DHT22;32708;51.212;6.788;2022-12-18T00:31:41;-2.00;99.90
48604;DHT22;32708;51.212;6.788;2022-12-18T00:34:12;-2.10;99.90
48604;DHT22;32708;51.212;6.788;2022-12-18T00:36:40;-2.10;99.90
48604;DHT22;32708;51.212;6.788;2022-12-18T00:39:07;-2.10;99.90
48604;DHT22;32708;51.212;6.788;2022-12-18T00:41:34;-2.10;99.90
48604;DHT22;32708;51.212;6.788;2022-12-18T00:44:19;-2.20;99.90
48604;DHT22;32708;51.212;6.788;2022-12-18T00:46:49;-2.20;99.90
48604;DHT22;32708;51.212;6.788;2022-12-18T00:49:19;-2.20;99.90
48604;DHT22;32708;51.212;6.788;2022-12-18T00:51:48;-2.20;99.90
48604;DHT22;32708;51.212;6.788;2022-12-18T00:54:15;-2.30;99.90
48604;DHT22;32708;51.212;6.788;2022-12-18T00:56:42;-2.30;99.90
48604;DHT22;32708;51.212;6.788;2022-12-18T00:59:08;-2.40;99.90
48604;DHT22;32708;51.212;6.788;2022-12-18T01:01:35;-2.40;99.90
48604;DHT22;32708;51.212;6.788;2022-12-18T01:04:04;-2.30;99.90
48604;DHT22;32708;51.212;6.788;2022-12-18T01:06:32;-2.30;99.90
48604;DHT22;32708;51.212;6.788;2022-12-18T01:08:58;-2.40;99.90
48604;DHT22;32708;51.212;6.788;2022-12-18T01:11:25;-2.40;99.90
48604;DHT22;32708;51.212;6.788;2022-12-18T01:13:53;-2.50;99.90
48604;DHT22;32708;51.212;6.788;2022-12-18T01:16:22;-2.50;99.90
48604;DHT22;32708;51.212;6.788;2022-12-18T01:18:53;-2.50;99.90
48604;DHT22;32708;51.212;6.788;2022-12-18T01:21:21;-2.50;99.90
48604;DHT22;32708;51.212;6.788;2022-12-18T01:23:52;-2.50;99.90
48604;DHT22;32708;51.212;6.788;2022-12-18T01:26:19;-2.50;99.90
48604;DHT22;32708;51.212;6.788;2022-12-18T01:28:46;-2.50;99.90
48604;DHT22;32708;51.212;6.788;2022-12-18T01:31:25;-2.40;99.90
48604;DHT22;32708;51.212;6.788;2022-12-18T01:33:55;-2.50;99.90
48604;DHT22;32708;51.212;6.788;2022-12-18T01:36:25;-2.40;99.90
48604;DHT22;32708;51.212;6.788;2022-12-18T01:38:55;-2.30;99.90
48604;DHT22;32708;51.212;6.788;2022-12-18T01:41:27;-2.30;99.90
48604;DHT22;32708;51.212;6.788;2022-12-18T01:47:55;-2.40;99.90
48604;DHT22;32708;51.212;6.788;2022-12-18T01:50:31;-2.40;99.90
48604;DHT22;32708;51.212;6.788;2022-12-18T01:53:19;-2.30;99.90
48604;DHT22;32708;51.212;6.788;2022-12-18T01:55:55;-2.30;99.90
48604;DHT22;32708;51.212;6.788;2022-12-18T02:01:08;-2.40;99.90
48604;DHT22;32708;51.212;6.788;2022-12-18T02:03:34;-2.40;99.90
48604;DHT22;32708;51.212;6.788;2022-12-18T02:06:20;-2.40;99.90
48604;DHT22;32708;51.212;6.788;2022-12-18T02:09:07;-2.50;99.90
48604;DHT22;32708;51.212;6.788;2022-12-18T02:11:56;-2.50;99.90
48604;DHT22;32708;51.212;6.788;2022-12-18T02:15:00;-2.50;99.90
48604;DHT22;32708;51.212;6.788;2022-12-18T02:17:47;-2.60;99.90
48604;DHT22;32708;51.212;6.788;2022-12-18T02:20:45;-2.60;99.90
48604;DHT22;32708;51.212;6.788;2022-12-18T02:26:46;-2.50;99.90
48604;DHT22;32708;51.212;6.788;2022-12-18T02:29:26;-2.50;99.90
48604;DHT22;32708;51.212;6.788;2022-12-18T02:32:07;-2.30;99.90
48604;DHT22;32708;51.212;6.788;2022-12-18T02:34:40;-2.50;99.90
48604;DHT22;32708;51.212;6.788;2022-12-18T02:37:16;-2.40;99.90
48604;DHT22;32708;51.212;6.788;2022-12-18T02:39:48;-2.40;99.90
48604;DHT22;32708;51.212;6.788;2022-12-18T02:42:18;-2.40;99.90
48604;DHT22;32708;51.212;6.788;2022-12-18T02:44:47;-2.30;99.90
48604;DHT22;32708;51.212;6.788;2022-12-18T02:47:24;-2.30;99.90
48604;DHT22;32708;51.212;6.788;2022-12-18T02:58:19;-2.30;99.90
48604;DHT22;32708;51.212;6.788;2022-12-18T03:04:14;-2.30;99.90
48604;DHT22;32708;51.212;6.788;2022-12-18T03:06:54;-2.30;99.90
48604;DHT22;32708;51.212;6.788;2022-12-18T03:09:32;-2.30;99.90
48604;DHT22;32708;51.212;6.788;2022-12-18T03:17:52;-2.40;99.90
48604;DHT22;32708;51.212;6.788;2022-12-18T03:20:30;-2.40;99.90
48604;DHT22;32708;51.212;6.788;2022-12-18T03:23:06;-2.40;99.90
48604;DHT22;32708;51.212;6.788;2022-12-18T03:25:40;-2.40;99.90
48604;DHT22;32708;51.212;6.788;2022-12-18T03:28:14;-2.30;99.90
48604;DHT22;32708;51.212;6.788;2022-12-18T03:30:53;-2.30;99.90
48604;DHT22;32708;51.212;6.788;2022-12-18T03:33:57;-2.30;99.90
48604;DHT22;32708;51.212;6.788;2022-12-18T03:36:35;-2.30;99.90
48604;DHT22;32708;51.212;6.788;2022-12-18T03:39:02;-2.30;99.90
48604;DHT22;32708;51.212;6.788;2022-12-18T03:41:51;-2.30;99.90
48604;DHT22;32708;51.212;6.788;2022-12-18T03:47:38;-2.20;99.90
48604;DHT22;32708;51.212;6.788;2022-12-18T03:50:29;-2.20;99.90
48604;DHT22;32708;51.212;6.788;2022-12-18T03:55:52;-2.10;99.90
48604;DHT22;32708;51.212;6.788;2022-12-18T03:58:24;-2.20;99.90
48604;DHT22;32708;51.212;6.788;2022-12-18T04:01:03;-2.10;99.90
48604;DHT22;32708;51.212;6.788;2022-12-18T04:03:35;-2.20;99.90
48604;DHT22;32708;51.212;6.788;2022-12-18T04:06:07;-2.20;99.90
48604;DHT22;32708;51.212;6.788;2022-12-18T04:08:38;-2.30;99.90
48604;DHT22;32708;51.212;6.788;2022-12-18T04:11:07;-2.30;99.90
48604;DHT22;32708;51.212;6.788;2022-12-18T04:13:38;-2.20;99.90
48604;DHT22;32708;51.212;6.788;2022-12-18T04:16:14;-2.30;99.90
48604;DHT22;32708;51.212;6.788;2022-12-18T04:18:42;-2.30;99.90
48604;DHT22;32708;51.212;6.788;2022-12-18T04:21:10;-2.30;99.90
48604;DHT22;32708;51.212;6.788;2022-12-18T04:23:37;-2.40;99.90
48604;DHT22;32708;51.212;6.788;2022-12-18T04:26:06;-2.20;99.90
48604;DHT22;32708;51.212;6.788;2022-12-18T04:28:52;-2.40;99.90
48604;DHT22;32708;51.212;6.788;2022-12-18T04:31:19;-2.50;99.90
48604;DHT22;32708;51.212;6.788;2022-12-18T04:33:47;-2.40;99.90
48604;DHT22;32708;51.212;6.788;2022-12-18T04:36:13;-2.50;99.90
48604;DHT22;32708;51.212;6.788;2022-12-18T04:38:42;-2.50;99.90
48604;DHT22;32708;51.212;6.788;2022-12-18T04:41:12;-2.40;99.90
48604;DHT22;32708;51.212;6.788;2022-12-18T04:43:40;-2.50;99.90
48604;DHT22;32708;51.212;6.788;2022-12-18T04:46:08;-2.60;99.90
48604;DHT22;32708;51.212;6.788;2022-12-18T04:48:35;-2.60;99.90
48604;DHT22;32708;51.212;6.788;2022-12-18T04:51:04;-2.70;99.90
48604;DHT22;32708;51.212;6.788;2022-12-18T04:53:31;-2.70;99.90
48604;DHT22;32708;51.212;6.788;2022-12-18T04:56:10;-2.70;99.90
48604;DHT22;32708;51.212;6.788;2022-12-18T04:58:41;-2.70;99.90
48604;DHT22;32708;51.212;6.788;2022-12-18T05:01:09;-2.70;99.90
48604;DHT22;32708;51.212;6.788;2022-12-18T05:03:37;-2.70;99.90
48604;DHT22;32708;51.212;6.788;2022-12-18T05:06:05;-2.70;99.90
48604;DHT22;32708;51.212;6.788;2022-12-18T05:08:35;-2.70;99.90
48604;DHT22;32708;51.212;6.788;2022-12-18T05:11:02;-2.70;99.90
48604;DHT22;32708;51.212;6.788;2022-12-18T05:13:30;-2.70;99.90
48604;DHT22;32708;51.212;6.788;2022-12-18T05:15:57;-2.70;99.90
48604;DHT22;32708;51.212;6.788;2022-12-18T05:18:28;-2.70;99.90
48604;DHT22;32708;51.212;6.788;2022-12-18T05:20:56;-2.70;99.90
48604;DHT22;32708;51.212;6.788;2022-12-18T05:23:26;-2.80;99.90
48604;DHT22;32708;51.212;6.788;2022-12-18T05:25:58;-2.80;99.90
48604;DHT22;32708;51.212;6.788;2022-12-18T05:28:28;-2.80;99.90
48604;DHT22;32708;51.212;6.788;2022-12-18T05:31:00;-2.50;99.90
48604;DHT22;32708;51.212;6.788;2022-12-18T05:33:30;-2.80;99.90
48604;DHT22;32708;51.212;6.788;2022-12-18T05:36:04;-2.70;99.90
48604;DHT22;32708;51.212;6.788;2022-12-18T05:38:35;-2.80;99.90
48604;DHT22;32708;51.212;6.788;2022-12-18T05:41:03;-2.80;99.90
48604;DHT22;32708;51.212;6.788;2022-12-18T05:43:34;-2.70;99.90
48604;DHT22;32708;51.212;6.788;2022-12-18T05:46:13;-2.70;99.90
48604;DHT22;32708;51.212;6.788;2022-12-18T05:48:49;-2.80;99.90
48604;DHT22;32708;51.212;6.788;2022-12-18T05:51:19;-2.80;99.90
48604;DHT22;32708;51.212;6.788;2022-12-18T05:53:49;-2.80;99.90
48604;DHT22;32708;51.212;6.788;2022-12-18T05:56:19;-2.80;99.90
48604;DHT22;32708;51.212;6.788;2022-12-18T05:58:50;-2.80;99.90
48604;DHT22;32708;51.212;6.788;2022-12-18T06:01:23;-2.80;99.90
48604;DHT22;32708;51.212;6.788;2022-12-18T06:03:50;-2.80;99.90
48604;DHT22;32708;51.212;6.788;2022-12-18T06:06:23;-2.90;99.90
48604;DHT22;32708;51.212;6.788;2022-12-18T06:08:52;-2.90;99.90
48604;DHT22;32708;51.212;6.788;2022-12-18T06:11:22;-2.90;99.90
48604;DHT22;32708;51.212;6.788;2022-12-18T06:13:53;-2.90;99.90
48604;DHT22;32708;51.212;6.788;2022-12-18T06:16:21;-2.80;99.90
48604;DHT22;32708;51.212;6.788;2022-12-18T06:18:48;-2.90;99.90
48604;DHT22;32708;51.212;6.788;2022-12-18T06:21:15;-2.90;99.90
48604;DHT22;32708;51.212;6.788;2022-12-18T06:23:42;-2.90;99.90
48604;DHT22;32708;51.212;6.788;2022-12-18T06:26:11;-2.60;99.90
48604;DHT22;32708;51.212;6.788;2022-12-18T06:28:41;-2.80;99.90
48604;DHT22;32708;51.212;6.788;2022-12-18T06:31:07;-2.80;99.90
48604;DHT22;32708;51.212;6.788;2022-12-18T06:33:35;-2.80;99.90
48604;DHT22;32708;51.212;6.788;2022-12-18T06:36:20;-2.80;99.90
48604;DHT22;32708;51.212;6.788;2022-12-18T06:38:47;-2.60;99.90
48604;DHT22;32708;51.212;6.788;2022-12-18T06:41:16;-2.80;99.90
48604;DHT22;32708;51.212;6.788;2022-12-18T06:43:44;-2.80;99.90
48604;DHT22;32708;51.212;6.788;2022-12-18T06:46:12;-2.80;99.90
48604;DHT22;32708;51.212;6.788;2022-12-18T06:48:39;-2.80;99.90
48604;DHT22;32708;51.212;6.788;2022-12-18T06:51:05;-2.70;99.90
48604;DHT22;32708;51.212;6.788;2022-12-18T06:53:32;-2.70;99.90
48604;DHT22;32708;51.212;6.788;2022-12-18T06:56:02;-2.70;99.90
48604;DHT22;32708;51.212;6.788;2022-12-18T06:58:31;-2.70;99.90
48604;DHT22;32708;51.212;6.788;2022-12-18T07:01:06;-2.70;99.90
48604;DHT22;32708;51.212;6.788;2022-12-18T07:03:34;-2.60;99.90
48604;DHT22;32708;51.212;6.788;2022-12-18T07:06:02;-2.60;99.90
48604;DHT22;32708;51.212;6.788;2022-12-18T07:08:30;-2.60;99.90
48604;DHT22;32708;51.212;6.788;2022-12-18T07:10:57;-2.40;99.90
48604;DHT22;32708;51.212;6.788;2022-12-18T07:13:24;-2.10;99.90
48604;DHT22;32708;51.212;6.788;2022-12-18T07:15:50;-2.50;99.90
48604;DHT22;32708;51.212;6.788;2022-12-18T07:18:16;-2.40;99.90
48604;DHT22;32708;51.212;6.788;2022-12-18T07:20:42;-2.40;99.90
48604;DHT22;32708;51.212;6.788;2022-12-18T07:23:09;-2.40;99.90
48604;DHT22;32708;51.212;6.788;2022-12-18T07:25:36;-2.20;99.90
48604;DHT22;32708;51.212;6.788;2022-12-18T07:28:04;-2.40;99.90
48604;DHT22;32708;51.212;6.788;2022-12-18T07:30:30;-2.40;99.90
48604;DHT22;32708;51.212;6.788;2022-12-18T07:32:57;-2.40;99.90
48604;DHT22;32708;51.212;6.788;2022-12-18T07:35:24;-2.30;99.90
48604;DHT22;32708;51.212;6.788;2022-12-18T07:37:50;-2.30;99.90
48604;DHT22;32708;51.212;6.788;2022-12-18T07:40:18;-2.20;99.90
48604;DHT22;32708;51.212;6.788;2022-12-18T07:42:45;-2.20;99.90
48604;DHT22;32708;51.212;6.788;2022-12-18T07:45:11;-2.20;99.90
48604;DHT22;32708;51.212;6.788;2022-12-18T07:47:37;-2.20;99.90
48604;DHT22;32708;51.212;6.788;2022-12-18T07:50:12;-2.10;99.90
48604;DHT22;32708;51.212;6.788;2022-12-18T07:52:39;-2.00;99.90
48604;DHT22;32708;51.212;6.788;2022-12-18T07:55:23;-1.80;99.90
48604;DHT22;32708;51.212;6.788;2022-12-18T07:57:53;-1.90;99.90
48604;DHT22;32708;51.212;6.788;2022-12-18T08:00:20;-2.20;99.90
48604;DHT22;32708;51.212;6.788;2022-12-18T08:02:46;-2.20;99.90
48604;DHT22;32708;51.212;6.788;2022-12-18T08:05:13;-2.20;99.90
48604;DHT22;32708;51.212;6.788;2022-12-18T08:07:40;-2.30;99.90
48604;DHT22;32708;51.212;6.788;2022-12-18T08:10:06;-2.30;99.90
48604;DHT22;32708;51.212;6.788;2022-12-18T08:12:33;-2.30;99.90
48604;DHT22;32708;51.212;6.788;2022-12-18T08:15:01;-2.30;99.90
48604;DHT22;32708;51.212;6.788;2022-12-18T08:17:27;-2.20;99.90
48604;DHT22;32708;51.212;6.788;2022-12-18T08:19:54;-2.20;99.90
48604;DHT22;32708;51.212;6.788;2022-12-18T08:22:23;-2.20;99.90
48604;DHT22;32708;51.212;6.788;2022-12-18T08:24:52;-2.10;99.90
48604;DHT22;32708;51.212;6.788;2022-12-18T08:27:21;-2.10;99.90
48604;DHT22;32708;51.212;6.788;2022-12-18T08:29:47;-2.10;99.90
48604;DHT22;32708;51.212;6.788;2022-12-18T08:32:14;-2.10;99.90
48604;DHT22;32708;51.212;6.788;2022-12-18T08:34:41;-2.10;99.90
48604;DHT22;32708;51.212;6.788;2022-12-18T08:37:07;-2.00;99.90
48604;DHT22;32708;51.212;6.788;2022-12-18T08:39:33;-2.00;99.90
48604;DHT22;32708;51.212;6.788;2022-12-18T08:42:01;-1.90;99.90
48604;DHT22;32708;51.212;6.788;2022-12-18T08:44:46;-1.90;99.90
48604;DHT22;32708;51.212;6.788;2022-12-18T08:47:12;-1.80;99.90
48604;DHT22;32708;51.212;6.788;2022-12-18T08:49:39;-1.80;99.90
48604;DHT22;32708;51.212;6.788;2022-12-18T08:52:08;-1.70;99.90
48604;DHT22;32708;51.212;6.788;2022-12-18T08:54:40;-1.70;99.90
48604;DHT22;32708;51.212;6.788;2022-12-18T08:57:09;-1.60;99.90
48604;DHT22;32708;51.212;6.788;2022-12-18T08:59:36;-1.50;99.80
48604;DHT22;32708;51.212;6.788;2022-12-18T09:02:02;-1.50;99.10
48604;DHT22;32708;51.212;6.788;2022-12-18T09:04:28;-1.40;99.60
48604;DHT22;32708;51.212;6.788;2022-12-18T09:06:54;-1.20;98.40
48604;DHT22;32708;51.212;6.788;2022-12-18T09:09:21;-1.40;98.60
48604;DHT22;32708;51.212;6.788;2022-12-18T09:11:49;-1.30;98.50
48604;DHT22;32708;51.212;6.788;2022-12-18T09:14:15;-1.30;98.00
48604;DHT22;32708;51.212;6.788;2022-12-18T09:16:41;-1.30;97.80
48604;DHT22;32708;51.212;6.788;2022-12-18T09:19:09;-1.30;98.10
48604;DHT22;32708;51.212;6.788;2022-12-18T09:21:41;-1.20;98.30
48604;DHT22;32708;51.212;6.788;2022-12-18T09:24:14;-1.20;97.70
48604;DHT22;32708;51.212;6.788;2022-12-18T09:26:43;-1.20;97.70
48604;DHT22;32708;51.212;6.788;2022-12-18T09:29:15;-1.10;97.50
48604;DHT22;32708;51.212;6.788;2022-12-18T09:31:41;-1.10;97.40
48604;DHT22;32708;51.212;6.788;2022-12-18T09:34:08;-1.00;96.90
48604;DHT22;32708;51.212;6.788;2022-12-18T09:36:37;-0.90;96.80
48604;DHT22;32708;51.212;6.788;2022-12-18T09:39:04;-0.90;96.30
48604;DHT22;32708;51.212;6.788;2022-12-18T09:41:55;-0.80;95.80
48604;DHT22;32708;51.212;6.788;2022-12-18T09:44:28;-0.80;95.50
48604;DHT22;32708;51.212;6.788;2022-12-18T09:47:11;-0.80;96.00
48604;DHT22;32708;51.212;6.788;2022-12-18T09:49:44;-0.70;95.40
48604;DHT22;32708;51.212;6.788;2022-12-18T09:52:33;-0.60;94.60
48604;DHT22;32708;51.212;6.788;2022-12-18T09:55:14;-0.60;93.20
48604;DHT22;32708;51.212;6.788;2022-12-18T10:00:54;-0.50;92.50
48604;DHT22;32708;51.212;6.788;2022-12-18T10:03:20;-0.50;92.00
48604;DHT22;32708;51.212;6.788;2022-12-18T10:09:15;-0.30;90.50
48604;DHT22;32708;51.212;6.788;2022-12-18T10:12:42;-0.20;90.90
48604;DHT22;32708;51.212;6.788;2022-12-18T10:25:21;-0.10;87.00
48604;DHT22;32708;51.212;6.788;2022-12-18T10:28:07;-0.10;89.50
48604;DHT22;32708;51.212;6.788;2022-12-18T10:30:39;0.00;88.50
48604;DHT22;32708;51.212;6.788;2022-12-18T10:33:13;0.00;88.50
48604;DHT22;32708;51.212;6.788;2022-12-18T10:35:53;0.10;89.20
48604;DHT22;32708;51.212;6.788;2022-12-18T10:38:28;0.20;84.20
48604;DHT22;32708;51.212;6.788;2022-12-18T10:44:21;0.40;82.40
48604;DHT22;32708;51.212;6.788;2022-12-18T10:46:55;0.40;81.30
48604;DHT22;32708;51.212;6.788;2022-12-18T10:49:32;0.40;80.00
48604;DHT22;32708;51.212;6.788;2022-12-18T10:52:19;0.50;80.00
48604;DHT22;32708;51.212;6.788;2022-12-18T10:54:58;0.50;78.30
48604;DHT22;32708;51.212;6.788;2022-12-18T10:57:38;0.60;77.30
48604;DHT22;32708;51.212;6.788;2022-12-18T11:00:28;0.70;76.90
48604;DHT22;32708;51.212;6.788;2022-12-18T11:02:57;0.80;78.10
48604;DHT22;32708;51.212;6.788;2022-12-18T11:05:31;0.90;32.10
48604;DHT22;32708;51.212;6.788;2022-12-18T11:08:00;0.90;23.40
48604;DHT22;32708;51.212;6.788;2022-12-18T11:10:33;0.90;18.80
48604;DHT22;32708;51.212;6.788;2022-12-18T11:13:18;1.00;12.40
48604;DHT22;32708;51.212;6.788;2022-12-18T11:15:51;1.00;10.20
48604;DHT22;32708;51.212;6.788;2022-12-18T11:18:29;1.00;1.00
48604;DHT22;32708;51.212;6.788;2022-12-18T11:21:07;1.00;4.10
48604;DHT22;32708;51.212;6.788;2022-12-18T11:23:50;1.10;1.00
48604;DHT22;32708;51.212;6.788;2022-12-18T11:26:20;1.10;1.00
48604;DHT22;32708;51.212;6.788;2022-12-18T11:29:10;1.00;1.00
48604;DHT22;32708;51.212;6.788;2022-12-18T11:31:44;0.90;1.00
48604;DHT22;32708;51.212;6.788;2022-12-18T11:34:27;1.00;1.00
48604;DHT22;32708;51.212;6.788;2022-12-18T11:37:00;1.10;1.00
48604;DHT22;32708;51.212;6.788;2022-12-18T11:43:04;1.10;1.00
48604;DHT22;32708;51.212;6.788;2022-12-18T11:45:52;1.20;1.00
48604;DHT22;32708;51.212;6.788;2022-12-18T11:48:32;1.10;1.00
48604;DHT22;32708;51.212;6.788;2022-12-18T11:51:30;1.10;1.00
48604;DHT22;32708;51.212;6.788;2022-12-18T11:54:32;1.10;1.00
48604;DHT22;32708;51.212;6.788;2022-12-18T11:57:34;1.10;1.00
48604;DHT22;32708;51.212;6.788;2022-12-18T12:00:26;1.00;1.00
48604;DHT22;32708;51.212;6.788;2022-12-18T12:03:17;0.90;1.00
48604;DHT22;32708;51.212;6.788;2022-12-18T12:06:08;1.10;1.00
48604;DHT22;32708;51.212;6.788;2022-12-18T12:12:23;1.10;1.00
48604;DHT22;32708;51.212;6.788;2022-12-18T12:15:39;1.20;1.00
48604;DHT22;32708;51.212;6.788;2022-12-18T12:18:51;1.00;1.00
48604;DHT22;32708;51.212;6.788;2022-12-18T12:25:13;0.90;1.00
48604;DHT22;32708;51.212;6.788;2022-12-18T12:28:00;1.00;1.00
48604;DHT22;32708;51.212;6.788;2022-12-18T12:31:02;1.00;1.00
48604;DHT22;32708;51.212;6.788;2022-12-18T12:33:53;1.00;1.00
48604;DHT22;32708;51.212;6.788;2022-12-18T12:39:31;1.00;1.00
48604;DHT22;32708;51.212;6.788;2022-12-18T12:42:29;1.00;1.00
48604;DHT22;32708;51.212;6.788;2022-12-18T12:48:40;0.90;1.00
48604;DHT22;32708;51.212;6.788;2022-12-18T12:51:17;0.90;1.00
48604;DHT22;32708;51.212;6.788;2022-12-18T12:53:54;0.80;1.00
48604;DHT22;32708;51.212;6.788;2022-12-18T12:56:37;1.30;1.90
48604;DHT22;32708;51.212;6.788;2022-12-18T13:08:54;0.80;1.00
48604;DHT22;32708;51.212;6.788;2022-12-18T13:11:45;0.70;4.90
48604;DHT22;32708;51.212;6.788;2022-12-18T13:20:07;0.60;11.00
48604;DHT22;32708;51.212;6.788;2022-12-18T13:22:46;0.60;10.50
48604;DHT22;32708;51.212;6.788;2022-12-18T13:25:31;0.70;13.80
48604;DHT22;32708;51.212;6.788;2022-12-18T13:28:07;0.70;11.80
48604;DHT22;32708;51.212;6.788;2022-12-18T13:30:44;0.60;13.00
48604;DHT22;32708;51.212;6.788;2022-12-18T13:38:34;0.60;3.70
48604;DHT22;32708;51.212;6.788;2022-12-18T13:41:27;0.60;5.70
48604;DHT22;32708;51.212;6.788;2022-12-18T13:43:56;0.60;1.00
48604;DHT22;32708;51.212;6.788;2022-12-18T13:46:48;0.70;1.60
48604;DHT22;32708;51.212;6.788;2022-12-18T13:49:41;0.70;1.00
48604;DHT22;32708;51.212;6.788;2022-12-18T13:52:34;0.70;4.00
48604;DHT22;32708;51.212;6.788;2022-12-18T13:55:14;0.60;1.00
48604;DHT22;32708;51.212;6.788;2022-12-18T13:57:44;0.70;1.00
48604;DHT22;32708;51.212;6.788;2022-12-18T14:02:55;0.70;1.00
48604;DHT22;32708;51.212;6.788;2022-12-18T14:05:35;0.80;1.00
48604;DHT22;32708;51.212;6.788;2022-12-18T14:08:15;0.70;1.00
48604;DHT22;32708;51.212;6.788;2022-12-18T14:10:50;0.60;1.00
48604;DHT22;32708;51.212;6.788;2022-12-18T14:13:31;0.90;1.00
48604;DHT22;32708;51.212;6.788;2022-12-18T14:16:04;0.90;1.00
48604;DHT22;32708;51.212;6.788;2022-12-18T14:18:46;0.70;1.00
48604;DHT22;32708;51.212;6.788;2022-12-18T14:21:27;0.60;1.00
48604;DHT22;32708;51.212;6.788;2022-12-18T14:24:14;0.60;1.00
48604;DHT22;32708;51.212;6.788;2022-12-18T14:26:50;0.60;1.00
48604;DHT22;32708;51.212;6.788;2022-12-18T14:29:43;0.60;1.00
48604;DHT22;32708;51.212;6.788;2022-12-18T14:32:13;1.00;1.00
48604;DHT22;32708;51.212;6.788;2022-12-18T14:34:50;0.60;1.00
48604;DHT22;32708;51.212;6.788;2022-12-18T14:37:26;0.60;1.00
48604;DHT22;32708;51.212;6.788;2022-12-18T14:40:01;0.90;1.00
48604;DHT22;32708;51.212;6.788;2022-12-18T14:42:39;0.60;1.00
48604;DHT22;32708;51.212;6.788;2022-12-18T14:45:58;0.60;8.60
48604;DHT22;32708;51.212;6.788;2022-12-18T14:48:40;0.60;4.60
48604;DHT22;32708;51.212;6.788;2022-12-18T14:51:22;0.60;9.40
48604;DHT22;32708;51.212;6.788;2022-12-18T14:54:03;0.60;11.10
48604;DHT22;32708;51.212;6.788;2022-12-18T14:56:46;0.50;13.80
48604;DHT22;32708;51.212;6.788;2022-12-18T14:59:20;0.50;8.70
48604;DHT22;32708;51.212;6.788;2022-12-18T15:02:21;0.70;15.50
48604;DHT22;32708;51.212;6.788;2022-12-18T15:05:00;0.60;13.80
48604;DHT22;32708;51.212;6.788;2022-12-18T15:07:50;0.50;9.70
48604;DHT22;32708;51.212;6.788;2022-12-18T15:10:46;0.50;13.00
48604;DHT22;32708;51.212;6.788;2022-12-18T15:13:23;0.50;19.00
48604;DHT22;32708;51.212;6.788;2022-12-18T15:15:54;0.50;15.10
48604;DHT22;32708;51.212;6.788;2022-12-18T15:18:33;0.50;9.20
48604;DHT22;32708;51.212;6.788;2022-12-18T15:21:09;0.50;8.80
48604;DHT22;32708;51.212;6.788;2022-12-18T15:23:51;0.60;6.80
48604;DHT22;32708;51.212;6.788;2022-12-18T15:26:21;0.60;10.90
48604;DHT22;32708;51.212;6.788;2022-12-18T15:28:55;0.50;10.20
48604;DHT22;32708;51.212;6.788;2022-12-18T15:31:33;0.70;15.50
48604;DHT22;32708;51.212;6.788;2022-12-18T15:34:19;0.70;5.80
48604;DHT22;32708;51.212;6.788;2022-12-18T15:36:50;0.40;11.50
48604;DHT22;32708;51.212;6.788;2022-12-18T15:39:17;0.40;7.80
48604;DHT22;32708;51.212;6.788;2022-12-18T15:41:43;0.40;10.00
48604;DHT22;32708;51.212;6.788;2022-12-18T15:44:31;0.40;14.30
48604;DHT22;32708;51.212;6.788;2022-12-18T15:46:58;0.40;15.10
48604;DHT22;32708;51.212;6.788;2022-12-18T15:49:25;0.40;13.90
48604;DHT22;32708;51.212;6.788;2022-12-18T15:51:56;0.40;11.50
48604;DHT22;32708;51.212;6.788;2022-12-18T15:54:28;0.30;18.00
48604;DHT22;32708;51.212;6.788;2022-12-18T15:57:16;0.70;17.10
48604;DHT22;32708;51.212;6.788;2022-12-18T16:00:21;0.30;16.20
48604;DHT22;32708;51.212;6.788;2022-12-18T16:03:01;0.30;21.00
48604;DHT22;32708;51.212;6.788;2022-12-18T16:06:02;0.30;24.00
48604;DHT22;32708;51.212;6.788;2022-12-18T16:08:31;0.30;26.70
48604;DHT22;32708;51.212;6.788;2022-12-18T16:11:08;0.50;39.20
48604;DHT22;32708;51.212;6.788;2022-12-18T16:14:22;0.50;30.00
48604;DHT22;32708;51.212;6.788;2022-12-18T16:17:10;0.30;33.20
48604;DHT22;32708;51.212;6.788;2022-12-18T16:19:38;0.30;36.60
48604;DHT22;32708;51.212;6.788;2022-12-18T16:22:30;0.40;43.20
48604;DHT22;32708;51.212;6.788;2022-12-18T16:25:02;0.40;50.70
48604;DHT22;32708;51.212;6.788;2022-12-18T16:27:41;0.20;48.60
48604;DHT22;32708;51.212;6.788;2022-12-18T16:30:17;0.40;48.60
48604;DHT22;32708;51.212;6.788;2022-12-18T16:32:59;0.20;63.10
48604;DHT22;32708;51.212;6.788;2022-12-18T16:36:15;0.20;58.70
48604;DHT22;32708;51.212;6.788;2022-12-18T16:39:07;0.20;65.30
48604;DHT22;32708;51.212;6.788;2022-12-18T16:42:29;0.20;60.00
48604;DHT22;32708;51.212;6.788;2022-12-18T16:45:00;0.10;68.50
48604;DHT22;32708;51.212;6.788;2022-12-18T16:47:44;0.30;72.20
48604;DHT22;32708;51.212;6.788;2022-12-18T16:50:24;0.10;75.40
48604;DHT22;32708;51.212;6.788;2022-12-18T16:56:15;0.00;81.10
48604;DHT22;32708;51.212;6.788;2022-12-18T16:59:19;0.00;85.00
48604;DHT22;32708;51.212;6.788;2022-12-18T17:02:34;-0.10;86.20
48604;DHT22;32708;51.212;6.788;2022-12-18T17:05:05;0.00;87.40
48604;DHT22;32708;51.212;6.788;2022-12-18T17:07:44;0.00;90.60
48604;DHT22;32708;51.212;6.788;2022-12-18T17:10:13;0.00;89.90
48604;DHT22;32708;51.212;6.788;2022-12-18T17:12:43;0.00;90.30
48604;DHT22;32708;51.212;6.788;2022-12-18T17:15:43;0.00;90.30
48604;DHT22;32708;51.212;6.788;2022-12-18T17:18:29;0.00;91.00
48604;DHT22;32708;51.212;6.788;2022-12-18T17:21:05;0.20;91.40
48604;DHT22;32708;51.212;6.788;2022-12-18T17:23:40;-0.10;92.20
48604;DHT22;32708;51.212;6.788;2022-12-18T17:26:48;-0.10;92.40
48604;DHT22;32708;51.212;6.788;2022-12-18T17:29:50;-0.10;93.10
48604;DHT22;32708;51.212;6.788;2022-12-18T17:32:43;-0.10;93.00
48604;DHT22;32708;51.212;6.788;2022-12-18T17:35:40;-0.30;94.60
48604;DHT22;32708;51.212;6.788;2022-12-18T17:38:39;-0.20;94.00
48604;DHT22;32708;51.212;6.788;2022-12-18T17:41:30;-0.20;94.60
48604;DHT22;32708;51.212;6.788;2022-12-18T17:48:29;-0.30;95.00
48604;DHT22;32708;51.212;6.788;2022-12-18T17:51:28;-0.30;94.90
48604;DHT22;32708;51.212;6.788;2022-12-18T17:54:02;-0.10;94.80
48604;DHT22;32708;51.212;6.788;2022-12-18T17:57:03;-0.30;94.70
48604;DHT22;32708;51.212;6.788;2022-12-18T17:59:46;-0.20;93.80
48604;DHT22;32708;51.212;6.788;2022-12-18T18:05:13;-0.20;95.00
48604;DHT22;32708;51.212;6.788;2022-12-18T18:08:22;-0.30;95.40
48604;DHT22;32708;51.212;6.788;2022-12-18T18:11:40;-0.40;96.10
48604;DHT22;32708;51.212;6.788;2022-12-18T18:14:28;-0.30;96.70
48604;DHT22;32708;51.212;6.788;2022-12-18T18:17:00;-0.20;96.30
48604;DHT22;32708;51.212;6.788;2022-12-18T18:19:38;0.40;96.50
48604;DHT22;32708;51.212;6.788;2022-12-18T18:22:06;0.10;96.60